Time;durP1;ratioP1;P1;durP2;ratioP2;P2;SDS_P1;SDS_P2;PMS_P1;PMS_P2;Temp;Humidity;BMP_temperature;BMP_pressure;BME280_temperature;BME280_humidity;BME280_pressure;Samples;Min_cycle;Max_cycle;Signal;HPM_P1;HPM_P2
2022/11/12 00:03:26;;;;;;;90.05;84.55;;;;;;;;;;10197173;28;20045;-69
2022/11/12 00:08:22;;;;;;;88.85;83.20;;;;;;;;;;10184199;28;20053;-68
2022/11/12 00:13:19;;;;;;;93.38;87.30;;;;;;;;;;10199025;28;20064;-69
2022/11/12 00:18:15;;;;;;;88.60;83.00;;;;;;;;;;10191785;28;20054;-69
2022/11/12 00:23:11;;;;;;;85.88;79.65;;;;;;;;;;10181539;28;20054;-70
2022/11/12 00:28:08;;;;;;;79.38;74.38;;;;;;;;;;10191074;28;20041;-69
2022/11/12 00:33:05;;;;;;;71.20;66.32;;;;;;;;;;10191522;28;20129;-70
2022/11/12 00:38:01;;;;;;;67.85;63.40;;;;;;;;;;10189833;28;20045;-69
2022/11/12 00:42:57;;;;;;;65.28;60.92;;;;;;;;;;10194479;28;20060;-70
2022/11/12 00:47:55;;;;;;;58.85;54.63;;;;;;;;;;10204426;28;20055;-70
2022/11/12 00:52:52;;;;;;;53.22;49.40;;;;;;;;;;10199763;28;20045;-70
2022/11/12 00:57:48;;;;;;;56.33;52.42;;;;;;;;;;10203595;28;20417;-70
2022/11/12 01:02:44;;;;;;;52.65;48.85;;;;;;;;;;10221793;28;20056;-70
2022/11/12 01:07:47;;;;;;;55.90;51.97;;;;;;;;;;10211635;28;20052;-70
2022/11/12 01:12:48;;;;;;;51.70;48.40;;;;;;;;;;10194442;28;20046;-70
2022/11/12 01:17:44;;;;;;;53.15;49.53;;;;;;;;;;10204625;28;20049;-69
2022/11/12 01:22:40;;;;;;;49.78;46.20;;;;;;;;;;10189457;28;20628;-69
2022/11/12 01:27:36;;;;;;;51.03;47.42;;;;;;;;;;10192962;28;20053;-69
2022/11/12 01:32:33;;;;;;;44.35;41.03;;;;;;;;;;10202574;28;20046;-69
2022/11/12 01:37:30;;;;;;;43.40;40.33;;;;;;;;;;10200907;28;20421;-70
2022/11/12 01:42:30;;;;;;;41.42;38.42;;;;;;;;;;10195875;28;20050;-70
2022/11/12 01:47:28;;;;;;;39.88;37.10;;;;;;;;;;10166268;28;20050;-70
2022/11/12 01:52:29;;;;;;;38.47;35.78;;;;;;;;;;10214404;28;20046;-70
2022/11/12 01:57:27;;;;;;;35.90;33.42;;;;;;;;;;10191998;28;20511;-70
2022/11/12 02:02:30;;;;;;;35.67;32.97;;;;;;;;;;10205923;28;20177;-70
2022/11/12 02:07:27;;;;;;;32.83;30.27;;;;;;;;;;10198959;28;20050;-70
2022/11/12 02:17:38;;;;;;;31.80;29.10;;;;;;;;;;10189327;28;20052;-70
2022/11/12 02:22:34;;;;;;;30.95;28.25;;;;;;;;;;10197430;28;20045;-70
2022/11/12 02:27:30;;;;;;;29.02;26.60;;;;;;;;;;10189776;28;20052;-70
2022/11/12 02:32:26;;;;;;;28.55;26.25;;;;;;;;;;10181338;28;20045;-70
2022/11/12 02:37:22;;;;;;;26.88;24.45;;;;;;;;;;10181217;28;20052;-70
2022/11/12 02:42:19;;;;;;;28.77;26.38;;;;;;;;;;10187387;28;20060;-70
2022/11/12 02:47:15;;;;;;;30.48;28.00;;;;;;;;;;10195418;28;20053;-70
2022/11/12 02:52:11;;;;;;;33.38;30.40;;;;;;;;;;10185468;28;20425;-69
2022/11/12 02:57:08;;;;;;;36.03;32.78;;;;;;;;;;10192027;28;20498;-69
2022/11/12 03:02:04;;;;;;;33.85;30.92;;;;;;;;;;10180925;28;20058;-69
2022/11/12 03:07:00;;;;;;;36.72;33.92;;;;;;;;;;10184442;28;20050;-69
2022/11/12 03:11:57;;;;;;;38.28;35.28;;;;;;;;;;10194395;28;20044;-70
2022/11/12 03:16:53;;;;;;;39.65;36.22;;;;;;;;;;10192533;28;20045;-70
2022/11/12 03:21:49;;;;;;;42.38;39.10;;;;;;;;;;10193414;28;20050;-69
2022/11/12 03:26:45;;;;;;;42.08;39.05;;;;;;;;;;10205439;28;20046;-69
2022/11/12 03:31:42;;;;;;;46.15;42.58;;;;;;;;;;10194611;28;20047;-69
2022/11/12 03:36:38;;;;;;;46.88;43.55;;;;;;;;;;10191737;28;20046;-69
2022/11/12 03:41:34;;;;;;;51.90;48.60;;;;;;;;;;10172678;28;20409;-69
2022/11/12 03:46:30;;;;;;;54.35;50.60;;;;;;;;;;10182205;28;20042;-70
2022/11/12 03:51:27;;;;;;;59.88;56.00;;;;;;;;;;10206821;28;20042;-70
2022/11/12 03:56:27;;;;;;;63.58;59.50;;;;;;;;;;10196622;28;20043;-70
2022/11/12 04:01:24;;;;;;;67.03;62.72;;;;;;;;;;10193257;28;20046;-70
2022/11/12 04:11:35;;;;;;;70.57;66.05;;;;;;;;;;10175051;28;20048;-70
2022/11/12 04:21:50;;;;;;;71.35;66.95;;;;;;;;;;10193576;28;20042;-69
2022/11/12 04:26:46;;;;;;;73.22;68.80;;;;;;;;;;10199312;28;20049;-69
2022/11/12 04:31:43;;;;;;;79.68;74.72;;;;;;;;;;10189633;28;20134;-70
2022/11/12 04:36:39;;;;;;;73.50;68.72;;;;;;;;;;10194130;28;20842;-70
2022/11/12 04:46:50;;;;;;;76.70;72.07;;;;;;;;;;10195793;28;20483;-70
2022/11/12 04:52:04;;;;;;;80.03;74.82;;;;;;;;;;10174487;28;20069;-69
2022/11/12 04:57:00;;;;;;;82.00;76.93;;;;;;;;;;10188289;28;20034;-69
2022/11/12 05:01:57;;;;;;;87.93;82.45;;;;;;;;;;10188331;28;20573;-69
2022/11/12 05:06:56;;;;;;;80.15;75.07;;;;;;;;;;10193566;28;20044;-69
2022/11/12 05:11:54;;;;;;;82.53;77.45;;;;;;;;;;10194522;28;20040;-69
2022/11/12 05:16:50;;;;;;;80.13;75.13;;;;;;;;;;10193450;28;20054;-69
2022/11/12 05:22:05;;;;;;;85.43;80.18;;;;;;;;;;10195640;28;20047;-69
2022/11/12 05:27:02;;;;;;;77.10;72.22;;;;;;;;;;10204553;28;20046;-70
2022/11/12 05:31:59;;;;;;;83.40;78.18;;;;;;;;;;10199663;28;20049;-70
2022/11/12 05:36:55;;;;;;;87.63;82.43;;;;;;;;;;10189982;28;20042;-70
2022/11/12 05:41:52;;;;;;;86.75;81.07;;;;;;;;;;10195221;28;20037;-70
2022/11/12 05:47:07;;;;;;;85.60;80.47;;;;;;;;;;10182972;28;20107;-70
2022/11/12 05:52:04;;;;;;;88.47;83.28;;;;;;;;;;10194015;28;20042;-70
2022/11/12 05:57:00;;;;;;;80.38;75.40;;;;;;;;;;10182062;28;21752;-69
2022/11/12 06:01:57;;;;;;;80.63;75.65;;;;;;;;;;10174906;28;20405;-70
2022/11/12 06:06:53;;;;;;;85.80;80.55;;;;;;;;;;10182116;28;20128;-69
2022/11/12 06:11:49;;;;;;;85.57;80.60;;;;;;;;;;10177370;28;20088;-70
2022/11/12 06:16:45;;;;;;;84.35;79.07;;;;;;;;;;10173216;28;20135;-69
2022/11/12 06:21:42;;;;;;;86.75;81.25;;;;;;;;;;10174061;28;20046;-69
2022/11/12 06:26:39;;;;;;;86.80;81.32;;;;;;;;;;10176059;28;20058;-69
2022/11/12 06:31:35;;;;;;;83.22;78.35;;;;;;;;;;10183251;28;20850;-69
2022/11/12 06:36:32;;;;;;;85.22;79.95;;;;;;;;;;10161680;28;20067;-69
2022/11/12 06:41:28;;;;;;;89.82;84.05;;;;;;;;;;10191302;28;20052;-69
2022/11/12 06:46:24;;;;;;;90.55;85.10;;;;;;;;;;10181525;28;20050;-69
2022/11/12 06:51:21;;;;;;;89.50;84.05;;;;;;;;;;10176497;28;20050;-68
2022/11/12 06:56:17;;;;;;;94.60;89.10;;;;;;;;;;10182220;28;20520;-67
2022/11/12 07:01:15;;;;;;;103.18;97.15;;;;;;;;;;10185216;28;20065;-67
2022/11/12 07:06:12;;;;;;;98.70;92.88;;;;;;;;;;10211322;28;20134;-67
2022/11/12 07:11:09;;;;;;;101.15;95.00;;;;;;;;;;10179954;28;20042;-67
2022/11/12 07:16:06;;;;;;;101.28;95.28;;;;;;;;;;10182462;28;20054;-67
2022/11/12 07:21:03;;;;;;;92.57;86.97;;;;;;;;;;10183241;28;20046;-67
2022/11/12 07:26:02;;;;;;;94.57;88.82;;;;;;;;;;10188302;28;20412;-66
2022/11/12 07:31:00;;;;;;;96.70;90.93;;;;;;;;;;10184345;28;20049;-66
2022/11/12 07:35:57;;;;;;;90.75;85.35;;;;;;;;;;10184220;28;20057;-65
2022/11/12 07:41:09;;;;;;;93.07;87.40;;;;;;;;;;10196589;28;20433;-65
2022/11/12 07:46:11;;;;;;;94.10;88.22;;;;;;;;;;10174074;28;20042;-65
2022/11/12 07:51:12;;;;;;;93.85;88.18;;;;;;;;;;10194856;28;20049;-65
2022/11/12 07:56:10;;;;;;;97.13;91.15;;;;;;;;;;10187408;28;20520;-65
2022/11/12 08:01:21;;;;;;;97.47;91.57;;;;;;;;;;10207876;28;20041;-65
2022/11/12 08:06:17;;;;;;;92.72;87.15;;;;;;;;;;10193690;28;20441;-66
2022/11/12 08:11:13;;;;;;;90.43;84.80;;;;;;;;;;10200318;28;20045;-66
2022/11/12 08:16:10;;;;;;;93.75;88.22;;;;;;;;;;10193908;28;20040;-66
2022/11/12 08:21:08;;;;;;;97.47;91.70;;;;;;;;;;10197810;28;20037;-65
2022/11/12 08:26:06;;;;;;;99.07;93.32;;;;;;;;;;10190344;28;20045;-66
2022/11/12 08:31:04;;;;;;;103.00;97.18;;;;;;;;;;10206395;28;20041;-65
2022/11/12 08:36:03;;;;;;;102.78;96.75;;;;;;;;;;10194841;28;20421;-66
2022/11/12 08:41:01;;;;;;;97.72;92.13;;;;;;;;;;10207403;28;20033;-65
2022/11/12 08:45:59;;;;;;;102.28;96.15;;;;;;;;;;10203099;28;20132;-65
2022/11/12 08:50:55;;;;;;;97.25;91.53;;;;;;;;;;10207206;28;20511;-66
2022/11/12 08:55:53;;;;;;;90.43;85.32;;;;;;;;;;10201373;28;20429;-66
2022/11/12 09:00:49;;;;;;;89.68;84.55;;;;;;;;;;10207061;28;20081;-66
2022/11/12 09:05:46;;;;;;;83.97;79.18;;;;;;;;;;10200048;28;20058;-66
2022/11/12 09:10:43;;;;;;;79.32;74.40;;;;;;;;;;10205643;28;20548;-66
2022/11/12 09:15:39;;;;;;;72.97;68.25;;;;;;;;;;10203689;28;20050;-66
2022/11/12 09:20:36;;;;;;;62.13;58.03;;;;;;;;;;10199356;28;20046;-65
2022/11/12 09:25:33;;;;;;;51.00;47.58;;;;;;;;;;10190848;28;20050;-65
2022/11/12 09:30:29;;;;;;;45.90;42.95;;;;;;;;;;10197774;28;20042;-66
2022/11/12 09:35:25;;;;;;;47.22;43.72;;;;;;;;;;10193070;28;20049;-66
2022/11/12 09:40:24;;;;;;;47.53;44.00;;;;;;;;;;10201146;28;20069;-66
2022/11/12 09:45:27;;;;;;;44.00;40.60;;;;;;;;;;10201432;28;20060;-66
2022/11/12 09:50:25;;;;;;;43.28;40.15;;;;;;;;;;10216618;28;20053;-66
2022/11/12 09:55:28;;;;;;;43.75;40.65;;;;;;;;;;10196664;28;20055;-66
2022/11/12 10:00:25;;;;;;;42.50;39.28;;;;;;;;;;10200934;28;20038;-66
2022/11/12 10:05:27;;;;;;;41.88;38.88;;;;;;;;;;10198796;28;20058;-66
2022/11/12 10:10:23;;;;;;;;;;;;;;;;;;10202494;28;20523;-66
2022/11/12 10:21:03;;;;;;;36.90;33.75;;;;;;;;;;10166959;28;20040;-66
2022/11/12 10:26:04;;;;;;;35.33;32.42;;;;;;;;;;10184182;28;20060;-66
2022/11/12 10:31:04;;;;;;;32.67;29.88;;;;;;;;;;10198908;28;20128;-66
2022/11/12 10:36:21;;;;;;;30.33;27.98;;;;;;;;;;10192537;28;20520;-66
2022/11/12 10:41:19;;;;;;;29.98;27.33;;;;;;;;;;10184973;28;20042;-66
2022/11/12 10:46:20;;;;;;;27.45;25.05;;;;;;;;;;10192283;28;20037;-66
2022/11/12 10:51:35;;;;;;;30.23;27.35;;;;;;;;;;10204567;28;20040;-66
2022/11/12 10:56:32;;;;;;;26.42;24.20;;;;;;;;;;10192035;28;20054;-66
2022/11/12 11:01:30;;;;;;;26.45;24.15;;;;;;;;;;10186993;28;20050;-66
2022/11/12 11:06:31;;;;;;;25.58;23.40;;;;;;;;;;10183564;28;20042;-66
2022/11/12 11:11:29;;;;;;;23.10;21.00;;;;;;;;;;10184493;28;20041;-66
2022/11/12 11:16:26;;;;;;;22.65;20.42;;;;;;;;;;10192339;28;20561;-66
2022/11/12 11:21:28;;;;;;;21.50;19.33;;;;;;;;;;10196918;28;20418;-66
2022/11/12 11:26:41;;;;;;;21.33;19.25;;;;;;;;;;10193052;28;20524;-65
2022/11/12 11:31:43;;;;;;;19.48;17.67;;;;;;;;;;10194246;28;20046;-66
2022/11/12 11:36:51;;;;;;;18.50;16.70;;;;;;;;;;10201577;28;20045;-66
2022/11/12 11:41:53;;;;;;;19.30;17.42;;;;;;;;;;10194216;28;20045;-66
2022/11/12 11:47:01;;;;;;;19.13;17.23;;;;;;;;;;10199073;28;20046;-66
2022/11/12 11:52:06;;;;;;;18.20;16.30;;;;;;;;;;10212857;28;20041;-66
2022/11/12 11:57:08;;;;;;;18.05;16.40;;;;;;;;;;10197785;28;20052;-66
2022/11/12 12:02:13;;;;;;;19.08;17.20;;;;;;;;;;10205803;28;20052;-66
2022/11/12 12:07:18;;;;;;;19.83;16.92;;;;;;;;;;10192131;28;20073;-66
2022/11/12 12:12:15;;;;;;;18.83;16.90;;;;;;;;;;10204198;28;20041;-66
2022/11/12 12:17:17;;;;;;;20.27;17.05;;;;;;;;;;10197976;28;20072;-66
2022/11/12 12:22:16;;;;;;;19.40;17.35;;;;;;;;;;10198649;28;20064;-66
2022/11/12 12:27:20;;;;;;;19.58;17.48;;;;;;;;;;10192927;28;20042;-66
2022/11/12 12:32:19;;;;;;;19.80;17.70;;;;;;;;;;10196862;28;20418;-66
2022/11/12 12:37:19;;;;;;;18.58;16.95;;;;;;;;;;10181861;28;20038;-66
2022/11/12 12:42:20;;;;;;;19.92;17.77;;;;;;;;;;10190728;28;20042;-66
2022/11/12 12:47:18;;;;;;;19.23;17.20;;;;;;;;;;10208018;28;20413;-66
2022/11/12 12:52:14;;;;;;;21.20;19.02;;;;;;;;;;10208231;28;20160;-66
2022/11/12 12:57:29;;;;;;;19.90;17.90;;;;;;;;;;10196659;28;20044;-66
2022/11/12 13:02:26;;;;;;;20.15;18.25;;;;;;;;;;10189859;28;20049;-66
2022/11/12 13:07:39;;;;;;;20.05;18.30;;;;;;;;;;10186324;28;20057;-66
2022/11/12 13:12:53;;;;;;;22.67;20.55;;;;;;;;;;10190131;28;20042;-66
2022/11/12 13:17:50;;;;;;;21.42;19.73;;;;;;;;;;10196474;28;20066;-66
2022/11/12 13:22:49;;;;;;;22.27;20.17;;;;;;;;;;10198876;28;20054;-66
2022/11/12 13:27:45;;;;;;;22.38;20.52;;;;;;;;;;10191826;28;20046;-66
2022/11/12 13:32:45;;;;;;;22.80;20.88;;;;;;;;;;10190965;28;20054;-66
2022/11/12 13:37:45;;;;;;;23.00;20.92;;;;;;;;;;10187774;28;20042;-66
2022/11/12 13:42:48;;;;;;;24.27;22.23;;;;;;;;;;10205547;28;20045;-66
2022/11/12 13:47:44;;;;;;;24.52;22.40;;;;;;;;;;10190827;28;20394;-67
2022/11/12 13:52:40;;;;;;;25.05;22.98;;;;;;;;;;10210409;28;20452;-66
2022/11/12 13:57:37;;;;;;;26.25;24.15;;;;;;;;;;10180007;28;20057;-66
2022/11/12 14:02:35;;;;;;;26.70;24.52;;;;;;;;;;10202867;28;20042;-66
2022/11/12 14:07:47;;;;;;;24.73;22.60;;;;;;;;;;10188910;28;20050;-66
2022/11/12 14:13:09;;;;;;;23.58;21.60;;;;;;;;;;10207669;28;20048;-66
2022/11/12 14:18:11;;;;;;;23.08;21.15;;;;;;;;;;10193598;28;20037;-66
2022/11/12 14:23:10;;;;;;;25.02;22.63;;;;;;;;;;10201264;28;20049;-66
2022/11/12 14:28:22;;;;;;;24.60;22.52;;;;;;;;;;10193759;28;20044;-66
2022/11/12 14:33:20;;;;;;;;;;;;;;;;;;10199193;28;20555;-66
2022/11/12 14:38:26;;;;;;;24.25;22.15;;;;;;;;;;10190768;28;20278;-66
2022/11/12 14:43:30;;;;;;;25.05;22.67;;;;;;;;;;10213665;28;20053;-66
2022/11/12 14:48:26;;;;;;;25.45;23.15;;;;;;;;;;10201004;28;20046;-66
2022/11/12 14:53:28;;;;;;;26.02;23.65;;;;;;;;;;10204059;28;20050;-66
2022/11/12 14:58:27;;;;;;;28.85;26.10;;;;;;;;;;10190528;28;20045;-66
2022/11/12 15:03:29;;;;;;;27.23;24.90;;;;;;;;;;10208868;28;20050;-66
2022/11/12 15:08:30;;;;;;;30.15;27.40;;;;;;;;;;10186823;28;20286;-66
2022/11/12 15:13:26;;;;;;;29.20;26.40;;;;;;;;;;10188618;28;20042;-66
2022/11/12 15:18:24;;;;;;;29.75;27.35;;;;;;;;;;10196630;28;20044;-66
2022/11/12 15:23:21;;;;;;;30.52;27.77;;;;;;;;;;10203778;28;20054;-66
2022/11/12 15:28:21;;;;;;;32.70;29.88;;;;;;;;;;10192950;28;20058;-66
2022/11/12 15:33:21;;;;;;;34.22;31.20;;;;;;;;;;10201116;28;20169;-66
2022/11/12 15:38:30;;;;;;;34.55;31.65;;;;;;;;;;10189448;28;20042;-66
2022/11/12 15:43:34;;;;;;;36.92;33.70;;;;;;;;;;10179757;28;20049;-66
2022/11/12 15:48:30;;;;;;;40.65;37.10;;;;;;;;;;10188491;28;20515;-66
2022/11/12 15:53:27;;;;;;;40.85;37.42;;;;;;;;;;10199117;28;20050;-66
2022/11/12 15:58:28;;;;;;;44.72;40.72;;;;;;;;;;10189068;28;20125;-66
2022/11/12 16:03:25;;;;;;;45.20;41.63;;;;;;;;;;10192461;28;20050;-66
2022/11/12 16:08:21;;;;;;;47.67;43.80;;;;;;;;;;10187313;28;20064;-66
2022/11/12 16:13:18;;;;;;;49.22;45.50;;;;;;;;;;10190621;28;20515;-66
2022/11/12 16:18:14;;;;;;;51.90;47.85;;;;;;;;;;10189074;28;20046;-66
2022/11/12 16:23:10;;;;;;;50.53;46.63;;;;;;;;;;10188045;28;20052;-66
2022/11/12 16:28:16;;;;;;;52.33;48.53;;;;;;;;;;10186122;28;20052;-66
2022/11/12 16:33:12;;;;;;;54.17;50.10;;;;;;;;;;10188274;28;20502;-66
2022/11/12 16:38:13;;;;;;;56.70;51.95;;;;;;;;;;10190032;28;20044;-66
2022/11/12 16:43:10;;;;;;;56.13;51.60;;;;;;;;;;10193597;28;20434;-66
2022/11/12 16:48:12;;;;;;;56.67;52.58;;;;;;;;;;10198488;28;20041;-66
2022/11/12 16:53:08;;;;;;;58.40;53.95;;;;;;;;;;10200879;28;20038;-66
2022/11/12 16:58:04;;;;;;;58.45;54.03;;;;;;;;;;10178301;28;20042;-65
2022/11/12 17:03:00;;;;;;;63.63;58.45;;;;;;;;;;10194082;28;20045;-66
2022/11/12 17:07:57;;;;;;;62.85;58.13;;;;;;;;;;10189271;28;20042;-66
2022/11/12 17:12:53;;;;;;;65.85;61.15;;;;;;;;;;10192706;28;20037;-66
2022/11/12 17:17:51;;;;;;;69.75;64.78;;;;;;;;;;10193541;28;20070;-66
2022/11/12 17:22:48;;;;;;;68.90;63.95;;;;;;;;;;10194500;28;20053;-66
2022/11/12 17:27:44;;;;;;;70.57;65.47;;;;;;;;;;10184971;28;20068;-66
2022/11/12 17:32:40;;;;;;;71.32;66.15;;;;;;;;;;10204513;28;20049;-66
2022/11/12 17:37:36;;;;;;;71.43;66.60;;;;;;;;;;10207823;28;20120;-66
2022/11/12 17:42:33;;;;;;;76.70;71.75;;;;;;;;;;10216500;28;20045;-66
2022/11/12 17:47:29;;;;;;;74.22;69.50;;;;;;;;;;10212937;28;20046;-66
2022/11/12 17:52:25;;;;;;;79.05;73.82;;;;;;;;;;10208696;28;20058;-66
2022/11/12 17:57:21;;;;;;;85.03;79.63;;;;;;;;;;10200432;28;20314;-66
2022/11/12 18:02:18;;;;;;;87.90;82.53;;;;;;;;;;10213994;28;20041;-66
2022/11/12 18:07:14;;;;;;;84.45;79.18;;;;;;;;;;10193434;28;20037;-66
2022/11/12 18:12:10;;;;;;;92.57;87.10;;;;;;;;;;10200953;28;20046;-66
2022/11/12 18:17:06;;;;;;;90.75;85.20;;;;;;;;;;10204903;28;20049;-66
2022/11/12 18:22:03;;;;;;;91.10;84.95;;;;;;;;;;10200351;28;20045;-66
2022/11/12 18:26:59;;;;;;;91.50;85.65;;;;;;;;;;10191362;28;20440;-66
2022/11/12 18:31:55;;;;;;;87.68;82.43;;;;;;;;;;10192029;28;20037;-66
2022/11/12 18:36:51;;;;;;;95.22;89.47;;;;;;;;;;10191105;28;20045;-66
2022/11/12 18:41:48;;;;;;;91.07;85.68;;;;;;;;;;10213865;28;20048;-66
2022/11/12 18:46:44;;;;;;;95.55;89.45;;;;;;;;;;10201964;28;20042;-66
2022/11/12 18:51:40;;;;;;;94.85;89.25;;;;;;;;;;10193198;28;20053;-66
2022/11/12 18:56:38;;;;;;;94.22;88.18;;;;;;;;;;10186600;28;20054;-66
2022/11/12 19:01:35;;;;;;;94.30;88.53;;;;;;;;;;10195695;28;20056;-65
2022/11/12 19:06:31;;;;;;;96.57;90.35;;;;;;;;;;10187701;28;20421;-66
2022/11/12 19:11:27;;;;;;;96.65;90.40;;;;;;;;;;10196264;28;20037;-66
2022/11/12 19:16:24;;;;;;;99.80;93.18;;;;;;;;;;10210538;28;20064;-66
2022/11/12 19:21:21;;;;;;;96.80;90.88;;;;;;;;;;10204183;28;20045;-66
2022/11/12 19:26:18;;;;;;;100.75;94.70;;;;;;;;;;10200419;28;20547;-66
2022/11/12 19:31:15;;;;;;;98.35;92.47;;;;;;;;;;10203909;28;20096;-66
2022/11/12 19:36:13;;;;;;;105.72;99.43;;;;;;;;;;10195147;28;20126;-66
2022/11/12 19:41:16;;;;;;;102.25;96.20;;;;;;;;;;10189569;28;20047;-66
2022/11/12 19:46:15;;;;;;;105.45;98.65;;;;;;;;;;10203546;28;20475;-66
2022/11/12 19:51:12;;;;;;;109.00;102.32;;;;;;;;;;10189440;28;20049;-66
2022/11/12 19:56:09;;;;;;;112.35;105.57;;;;;;;;;;10189912;28;20053;-66
2022/11/12 20:01:06;;;;;;;113.25;106.55;;;;;;;;;;10190213;28;20045;-66
2022/11/12 20:06:04;;;;;;;115.20;108.30;;;;;;;;;;10189506;28;20096;-62
2022/11/12 20:11:00;;;;;;;108.90;102.40;;;;;;;;;;10196195;28;20042;-66
2022/11/12 20:15:57;;;;;;;109.40;102.85;;;;;;;;;;10192922;28;20051;-66
2022/11/12 20:20:54;;;;;;;110.10;103.63;;;;;;;;;;10205214;28;20054;-66
2022/11/12 20:25:51;;;;;;;108.95;102.40;;;;;;;;;;10183342;28;20046;-66
2022/11/12 20:30:47;;;;;;;114.47;107.68;;;;;;;;;;10199071;28;20567;-66
2022/11/12 20:35:44;;;;;;;114.75;108.03;;;;;;;;;;10188711;28;20059;-66
2022/11/12 20:40:40;;;;;;;115.60;109.03;;;;;;;;;;10197933;28;20686;-65
2022/11/12 20:45:36;;;;;;;115.10;108.07;;;;;;;;;;10209022;28;20045;-66
2022/11/12 20:50:32;;;;;;;116.20;108.80;;;;;;;;;;10210945;28;20046;-66
2022/11/12 20:55:31;;;;;;;112.30;105.75;;;;;;;;;;10209105;28;20046;-66
2022/11/12 21:00:27;;;;;;;116.30;109.30;;;;;;;;;;10201478;28;20054;-66
2022/11/12 21:05:23;;;;;;;114.03;106.72;;;;;;;;;;10200805;28;20046;-66
2022/11/12 21:10:19;;;;;;;120.97;113.75;;;;;;;;;;10193959;28;20451;-66
2022/11/12 21:15:16;;;;;;;119.35;112.30;;;;;;;;;;10200879;28;20046;-66
2022/11/12 21:20:13;;;;;;;122.72;115.47;;;;;;;;;;10197933;28;20149;-66
2022/11/12 21:25:09;;;;;;;128.05;120.50;;;;;;;;;;10188456;28;20061;-66
2022/11/12 21:30:05;;;;;;;124.72;117.57;;;;;;;;;;10196974;28;20046;-66
2022/11/12 21:35:01;;;;;;;127.15;119.65;;;;;;;;;;10187138;28;20418;-66
2022/11/12 21:39:58;;;;;;;125.82;118.45;;;;;;;;;;10197257;28;20395;-66
2022/11/12 21:44:54;;;;;;;129.27;121.57;;;;;;;;;;10210343;28;20052;-66
2022/11/12 21:49:50;;;;;;;130.93;123.25;;;;;;;;;;10203278;28;20041;-66
2022/11/12 21:54:46;;;;;;;131.23;123.32;;;;;;;;;;10199197;28;20548;-66
2022/11/12 21:59:43;;;;;;;125.20;117.78;;;;;;;;;;10203722;28;20046;-66
2022/11/12 22:04:39;;;;;;;128.00;120.55;;;;;;;;;;10202774;28;20056;-66
2022/11/12 22:09:35;;;;;;;126.63;118.88;;;;;;;;;;10202797;28;20050;-66
2022/11/12 22:14:31;;;;;;;127.93;120.53;;;;;;;;;;10206578;28;20042;-66
2022/11/12 22:19:27;;;;;;;127.85;120.32;;;;;;;;;;10196219;28;20041;-66
2022/11/12 22:24:24;;;;;;;126.07;118.60;;;;;;;;;;10202981;28;20050;-66
2022/11/12 22:29:20;;;;;;;126.72;119.28;;;;;;;;;;10210298;28;20073;-66
2022/11/12 22:34:16;;;;;;;130.13;122.40;;;;;;;;;;10205249;28;20494;-66
2022/11/12 22:39:12;;;;;;;126.75;119.20;;;;;;;;;;10199131;28;20702;-66
2022/11/12 22:44:08;;;;;;;131.02;123.35;;;;;;;;;;10195053;28;20050;-66
2022/11/12 22:49:05;;;;;;;128.02;120.72;;;;;;;;;;10195285;28;20042;-66
2022/11/12 22:54:05;;;;;;;131.10;123.70;;;;;;;;;;10199605;28;20048;-66
2022/11/12 22:59:03;;;;;;;128.35;120.93;;;;;;;;;;10200563;28;20406;-66
2022/11/12 23:04:00;;;;;;;128.02;120.50;;;;;;;;;;10194076;28;20048;-66
2022/11/12 23:08:57;;;;;;;126.03;118.93;;;;;;;;;;10188538;28;20058;-65
2022/11/12 23:13:54;;;;;;;128.15;120.80;;;;;;;;;;10188997;28;20160;-66
2022/11/12 23:18:51;;;;;;;126.72;119.53;;;;;;;;;;10191736;28;20053;-66
2022/11/12 23:23:48;;;;;;;125.22;117.97;;;;;;;;;;10185203;28;20058;-66
2022/11/12 23:28:44;;;;;;;127.60;120.00;;;;;;;;;;10189216;28;20052;-66
2022/11/12 23:33:44;;;;;;;130.88;123.38;;;;;;;;;;10204161;28;20034;-66
2022/11/12 23:38:41;;;;;;;129.35;121.82;;;;;;;;;;10195695;28;20049;-66
2022/11/12 23:43:37;;;;;;;132.07;124.68;;;;;;;;;;10195787;28;20057;-65
2022/11/12 23:48:33;;;;;;;131.13;123.57;;;;;;;;;;10195047;28;20049;-66
2022/11/12 23:53:31;;;;;;;125.30;118.10;;;;;;;;;;10210382;28;20410;-66
2022/11/12 23:58:27;;;;;;;126.15;119.05;;;;;;;;;;10178073;28;20113;-66
